PUA2419 SUMU-SABE
Flight info
| Callsign | PUA2419 |
|---|---|
| Flight time | 0h 34m |
| Altitude | 16000 |
| Route | DAGUS DCT UGIMI UGIMI8R |
| Aircraft | A320/M-SDE3FGHIRWY/LB1 |
Departure
| Time | 2026-04-22 18:18 |
|---|---|
| Airport | Carrasco General Cesáreo L. Berisso International Airport (SUMU) |
Arrival
| Time | 2026-04-22 18:53 |
|---|---|
| Airport | Aeroparque Jorge Newbery (SABE) |
| Time | Latitude | Longitude | Altitude | Speed | Heading |
|---|---|---|---|---|---|
| 2026-04-22 17:10 | -34.83725 | -56.01971 | 88 ft | 0 kts | 143° |
| 2026-04-22 18:04 | -34.83711 | -56.01983 | 87 ft | 2 kts | 143° |
| 2026-04-22 18:04 | -34.83698 | -56.01996 | 84 ft | 2 kts | 143° |
| 2026-04-22 18:04 | -34.83684 | -56.02008 | 86 ft | 2 kts | 143° |
| 2026-04-22 18:04 | -34.83669 | -56.02020 | 85 ft | 3 kts | 168° |
| 2026-04-22 18:05 | -34.83652 | -56.02021 | 84 ft | 3 kts | 205° |
| 2026-04-22 18:05 | -34.83637 | -56.02008 | 87 ft | 2 kts | 229° |
| 2026-04-22 18:05 | -34.83632 | -56.02001 | 83 ft | 0 kts | 229° |
| 2026-04-22 18:10 | -34.83651 | -56.02026 | 83 ft | 10 kts | 230° |
| 2026-04-22 18:10 | -34.83699 | -56.02101 | 85 ft | 12 kts | 234° |
| 2026-04-22 18:10 | -34.83752 | -56.02189 | 86 ft | 14 kts | 231° |
| 2026-04-22 18:11 | -34.83841 | -56.02240 | 84 ft | 15 kts | 184° |
| 2026-04-22 18:11 | -34.83935 | -56.02257 | 84 ft | 12 kts | 221° |
| 2026-04-22 18:11 | -34.83945 | -56.02356 | 82 ft | 13 kts | 271° |
| 2026-04-22 18:11 | -34.83943 | -56.02469 | 82 ft | 14 kts | 271° |
| 2026-04-22 18:12 | -34.83945 | -56.02595 | 82 ft | 15 kts | 263° |
| 2026-04-22 18:12 | -34.83973 | -56.02720 | 87 ft | 14 kts | 246° |
| 2026-04-22 18:12 | -34.83933 | -56.02813 | 85 ft | 15 kts | 335° |
| 2026-04-22 18:12 | -34.83843 | -56.02846 | 83 ft | 5 kts | 354° |
| 2026-04-22 18:13 | -34.83841 | -56.02847 | 83 ft | 1 kts | 354° |
| 2026-04-22 18:13 | -34.83765 | -56.02852 | 86 ft | 18 kts | 359° |
| 2026-04-22 18:13 | -34.83632 | -56.02853 | 83 ft | 20 kts | 1° |
| 2026-04-22 18:13 | -34.83490 | -56.02852 | 87 ft | 21 kts | 359° |
| 2026-04-22 18:14 | -34.83340 | -56.02854 | 83 ft | 23 kts | 360° |
| 2026-04-22 18:14 | -34.83179 | -56.02858 | 84 ft | 24 kts | 358° |
| 2026-04-22 18:14 | -34.83006 | -56.02859 | 84 ft | 25 kts | 0° |
| 2026-04-22 18:14 | -34.82828 | -56.02861 | 86 ft | 26 kts | 358° |
| 2026-04-22 18:15 | -34.82644 | -56.02866 | 85 ft | 27 kts | 358° |
| 2026-04-22 18:15 | -34.82530 | -56.02900 | 85 ft | 12 kts | 304° |
| 2026-04-22 18:15 | -34.82521 | -56.02975 | 82 ft | 8 kts | 268° |
| 2026-04-22 18:15 | -34.82520 | -56.03049 | 82 ft | 9 kts | 271° |
| 2026-04-22 18:16 | -34.82566 | -56.03094 | 82 ft | 10 kts | 183° |
| 2026-04-22 18:16 | -34.82584 | -56.03095 | 85 ft | 0 kts | 181° |
| 2026-04-22 18:17 | -34.82595 | -56.03095 | 84 ft | 11 kts | 180° |
| 2026-04-22 18:17 | -34.82961 | -56.03097 | 84 ft | 90 kts | 179° |
| 2026-04-22 18:18 | -34.83801 | -56.03077 | 89 ft | 149 kts | 178° |
| 2026-04-22 18:18 | -34.84870 | -56.03029 | 686 ft | 151 kts | 186° |
| 2026-04-22 18:18 | -34.85919 | -56.03009 | 1411 ft | 153 kts | 186° |
| 2026-04-22 18:18 | -34.87020 | -56.03110 | 2065 ft | 157 kts | 199° |
| 2026-04-22 18:19 | -34.88032 | -56.03553 | 2434 ft | 164 kts | 207° |
| 2026-04-22 18:19 | -34.89146 | -56.04199 | 2738 ft | 186 kts | 208° |
| 2026-04-22 18:19 | -34.90372 | -56.04928 | 3036 ft | 211 kts | 207° |
| 2026-04-22 18:19 | -34.91770 | -56.05741 | 3508 ft | 233 kts | 207° |
| 2026-04-22 18:20 | -34.93280 | -56.06601 | 4201 ft | 245 kts | 206° |
| 2026-04-22 18:20 | -34.94849 | -56.07479 | 4855 ft | 251 kts | 205° |
| 2026-04-22 18:20 | -34.96438 | -56.08355 | 5034 ft | 251 kts | 205° |
| 2026-04-22 18:20 | -34.98031 | -56.09224 | 5158 ft | 250 kts | 205° |
| 2026-04-22 18:21 | -34.99645 | -56.10101 | 5282 ft | 251 kts | 206° |
| 2026-04-22 18:21 | -35.01230 | -56.10993 | 5405 ft | 251 kts | 211° |
| 2026-04-22 18:21 | -35.02529 | -56.12335 | 5528 ft | 250 kts | 232° |
| 2026-04-22 18:21 | -35.03344 | -56.14203 | 5654 ft | 252 kts | 252° |
| 2026-04-22 18:22 | -35.03533 | -56.16356 | 5780 ft | 255 kts | 271° |
| 2026-04-22 18:22 | -35.03379 | -56.18487 | 5905 ft | 255 kts | 272° |
| 2026-04-22 18:22 | -35.03221 | -56.20674 | 6031 ft | 255 kts | 272° |
| 2026-04-22 18:22 | -35.03067 | -56.22829 | 6160 ft | 255 kts | 271° |
| 2026-04-22 18:23 | -35.02915 | -56.24986 | 6288 ft | 255 kts | 271° |
| 2026-04-22 18:23 | -35.02765 | -56.27143 | 6415 ft | 255 kts | 271° |
| 2026-04-22 18:23 | -35.02616 | -56.29294 | 6537 ft | 255 kts | 271° |
| 2026-04-22 18:24 | -35.02312 | -56.33612 | 6846 ft | 260 kts | 271° |
| 2026-04-22 18:24 | -35.02155 | -56.35814 | 7741 ft | 259 kts | 271° |
| 2026-04-22 18:24 | -35.01842 | -56.40166 | 9630 ft | 260 kts | 271° |
| 2026-04-22 18:25 | -35.01682 | -56.42373 | 10412 ft | 266 kts | 272° |
| 2026-04-22 18:25 | -35.01515 | -56.44718 | 10691 ft | 289 kts | 272° |
| 2026-04-22 18:25 | -35.01338 | -56.47213 | 11204 ft | 300 kts | 273° |
| 2026-04-22 18:26 | -35.00962 | -56.52353 | 12714 ft | 307 kts | 274° |
| 2026-04-22 18:26 | -35.00771 | -56.54952 | 13506 ft | 309 kts | 275° |
| 2026-04-22 18:26 | -35.00578 | -56.57565 | 14235 ft | 311 kts | 275° |
| 2026-04-22 18:26 | -35.00384 | -56.60194 | 14906 ft | 312 kts | 275° |
| 2026-04-22 18:27 | -35.00189 | -56.62843 | 15567 ft | 315 kts | 275° |
| 2026-04-22 18:27 | -34.99991 | -56.65517 | 15970 ft | 317 kts | 276° |
| 2026-04-22 18:27 | -34.99793 | -56.68184 | 16072 ft | 313 kts | 276° |
| 2026-04-22 18:27 | -34.99601 | -56.70778 | 16093 ft | 303 kts | 276° |
| 2026-04-22 18:28 | -34.99412 | -56.73328 | 16097 ft | 301 kts | 276° |
| 2026-04-22 18:28 | -34.99226 | -56.75867 | 16101 ft | 300 kts | 276° |
| 2026-04-22 18:28 | -34.99040 | -56.78401 | 16100 ft | 300 kts | 276° |
| 2026-04-22 18:28 | -34.98849 | -56.80931 | 16100 ft | 300 kts | 276° |
| 2026-04-22 18:29 | -34.98656 | -56.83460 | 16100 ft | 300 kts | 276° |
| 2026-04-22 18:29 | -34.98377 | -56.85975 | 16106 ft | 299 kts | 283° |
| 2026-04-22 18:29 | -34.97878 | -56.88432 | 16102 ft | 300 kts | 283° |
| 2026-04-22 18:29 | -34.97634 | -56.91001 | 16101 ft | 312 kts | 266° |
| 2026-04-22 18:30 | -34.98264 | -56.93554 | 16103 ft | 323 kts | 245° |
| 2026-04-22 18:30 | -35.01861 | -56.97006 | 16100 ft | 354 kts | 203° |
| 2026-04-22 18:30 | -35.04330 | -56.97529 | 16100 ft | 361 kts | 197° |
| 2026-04-22 18:31 | -35.06647 | -56.98376 | 16100 ft | 337 kts | 213° |
| 2026-04-22 18:31 | -35.08562 | -56.99883 | 16098 ft | 321 kts | 229° |
| 2026-04-22 18:31 | -35.09975 | -57.01918 | 16098 ft | 310 kts | 244° |
| 2026-04-22 18:31 | -35.10816 | -57.04295 | 16098 ft | 303 kts | 259° |
| 2026-04-22 18:32 | -35.11085 | -57.06826 | 16097 ft | 305 kts | 271° |
| 2026-04-22 18:32 | -35.11028 | -57.09453 | 16096 ft | 312 kts | 274° |
| 2026-04-22 18:32 | -35.10927 | -57.12109 | 16103 ft | 314 kts | 274° |
| 2026-04-22 18:32 | -35.10828 | -57.14771 | 16098 ft | 314 kts | 274° |
| 2026-04-22 18:33 | -35.10728 | -57.17431 | 16101 ft | 314 kts | 274° |
| 2026-04-22 18:33 | -35.10626 | -57.20097 | 16097 ft | 314 kts | 274° |
| 2026-04-22 18:33 | -35.10522 | -57.22798 | 16097 ft | 314 kts | 274° |
| 2026-04-22 18:33 | -35.10418 | -57.25464 | 16097 ft | 314 kts | 274° |
| 2026-04-22 18:34 | -35.10312 | -57.28125 | 16101 ft | 314 kts | 274° |
| 2026-04-22 18:34 | -35.10205 | -57.30785 | 16097 ft | 314 kts | 274° |
| 2026-04-22 18:34 | -35.10098 | -57.33454 | 16101 ft | 314 kts | 274° |
| 2026-04-22 18:34 | -35.09726 | -57.36061 | 16097 ft | 313 kts | 287° |
| 2026-04-22 18:35 | -35.09006 | -57.38565 | 16112 ft | 313 kts | 289° |
| 2026-04-22 18:35 | -35.08264 | -57.41067 | 16113 ft | 313 kts | 289° |
| 2026-04-22 18:35 | -35.07522 | -57.43567 | 16090 ft | 313 kts | 289° |
| 2026-04-22 18:35 | -35.06777 | -57.46054 | 16092 ft | 313 kts | 289° |
| 2026-04-22 18:36 | -35.06026 | -57.48555 | 16091 ft | 313 kts | 289° |
| 2026-04-22 18:36 | -35.05277 | -57.51051 | 16096 ft | 313 kts | 289° |
| 2026-04-22 18:36 | -35.04526 | -57.53550 | 16098 ft | 313 kts | 289° |
| 2026-04-22 18:36 | -35.03777 | -57.56042 | 16100 ft | 313 kts | 289° |
| 2026-04-22 18:37 | -35.03025 | -57.58538 | 16101 ft | 312 kts | 289° |
| 2026-04-22 18:37 | -35.02290 | -57.60968 | 16007 ft | 299 kts | 289° |
| 2026-04-22 18:37 | -35.01818 | -57.62525 | 15938 ft | 292 kts | 289° |
| 2026-04-22 18:37 | -35.00893 | -57.65554 | 15782 ft | 278 kts | 289° |
| 2026-04-22 18:38 | -35.00228 | -57.67741 | 15567 ft | 272 kts | 289° |
| 2026-04-22 18:38 | -34.99362 | -57.69775 | 15254 ft | 273 kts | 307° |
| 2026-04-22 18:38 | -34.97823 | -57.71175 | 14865 ft | 286 kts | 331° |
| 2026-04-22 18:39 | -34.93672 | -57.71380 | 13996 ft | 312 kts | 359° |
| 2026-04-22 18:39 | -34.91509 | -57.71048 | 13544 ft | 314 kts | 359° |
| 2026-04-22 18:39 | -34.89336 | -57.70720 | 13077 ft | 316 kts | 359° |
| 2026-04-22 18:39 | -34.87148 | -57.70401 | 12614 ft | 317 kts | 359° |
| 2026-04-22 18:40 | -34.84945 | -57.70092 | 12166 ft | 319 kts | 359° |
| 2026-04-22 18:40 | -34.82737 | -57.69798 | 11718 ft | 320 kts | 359° |
| 2026-04-22 18:40 | -34.80519 | -57.69517 | 11266 ft | 321 kts | 359° |
| 2026-04-22 18:40 | -34.78290 | -57.69246 | 10843 ft | 322 kts | 359° |
| 2026-04-22 18:41 | -34.76051 | -57.68987 | 10413 ft | 323 kts | 359° |
| 2026-04-22 18:41 | -34.73819 | -57.68742 | 10143 ft | 318 kts | 359° |
| 2026-04-22 18:41 | -34.71624 | -57.68503 | 10094 ft | 312 kts | 360° |
| 2026-04-22 18:41 | -34.69470 | -57.68299 | 10112 ft | 312 kts | 359° |
| 2026-04-22 18:42 | -34.68010 | -57.68169 | 10112 ft | 312 kts | 358° |
| 2026-04-22 18:42 | -34.65886 | -57.68382 | 10047 ft | 301 kts | 339° |
| 2026-04-22 18:42 | -34.64040 | -57.69417 | 9646 ft | 287 kts | 317° |
| 2026-04-22 18:42 | -34.62670 | -57.71103 | 9238 ft | 276 kts | 297° |
| 2026-04-22 18:43 | -34.61865 | -57.73166 | 8828 ft | 266 kts | 280° |
| 2026-04-22 18:43 | -34.61643 | -57.75353 | 8443 ft | 259 kts | 263° |
| 2026-04-22 18:43 | -34.61962 | -57.77475 | 8037 ft | 255 kts | 251° |
| 2026-04-22 18:43 | -34.62438 | -57.79553 | 7634 ft | 255 kts | 252° |
| 2026-04-22 18:44 | -34.62906 | -57.81626 | 7263 ft | 254 kts | 252° |
| 2026-04-22 18:44 | -34.63371 | -57.83693 | 6873 ft | 254 kts | 252° |
| 2026-04-22 18:44 | -34.63835 | -57.85759 | 6474 ft | 253 kts | 252° |
| 2026-04-22 18:44 | -34.64298 | -57.87816 | 6053 ft | 253 kts | 252° |
| 2026-04-22 18:45 | -34.64763 | -57.89877 | 5633 ft | 252 kts | 252° |
| 2026-04-22 18:45 | -34.65225 | -57.91922 | 5320 ft | 250 kts | 252° |
| 2026-04-22 18:45 | -34.65687 | -57.93972 | 5211 ft | 253 kts | 252° |
| 2026-04-22 18:45 | -34.66154 | -57.96042 | 5086 ft | 254 kts | 252° |
| 2026-04-22 18:46 | -34.66618 | -57.98109 | 4962 ft | 254 kts | 252° |
| 2026-04-22 18:46 | -34.67097 | -58.00252 | 4841 ft | 253 kts | 252° |
| 2026-04-22 18:46 | -34.67549 | -58.02270 | 4705 ft | 253 kts | 252° |
| 2026-04-22 18:46 | -34.68017 | -58.04359 | 4586 ft | 254 kts | 253° |
| 2026-04-22 18:47 | -34.68473 | -58.06404 | 4452 ft | 253 kts | 253° |
| 2026-04-22 18:47 | -34.68936 | -58.08467 | 4323 ft | 249 kts | 253° |
| 2026-04-22 18:47 | -34.69377 | -58.10445 | 4194 ft | 236 kts | 253° |
| 2026-04-22 18:47 | -34.69797 | -58.12325 | 4067 ft | 226 kts | 253° |
| 2026-04-22 18:48 | -34.70132 | -58.14168 | 3941 ft | 224 kts | 265° |
| 2026-04-22 18:48 | -34.69947 | -58.16051 | 3815 ft | 227 kts | 287° |
| 2026-04-22 18:48 | -34.69196 | -58.17731 | 3691 ft | 227 kts | 302° |
| 2026-04-22 18:48 | -34.68310 | -58.19304 | 3567 ft | 225 kts | 302° |
| 2026-04-22 18:49 | -34.67433 | -58.20874 | 3438 ft | 223 kts | 301° |
| 2026-04-22 18:49 | -34.66564 | -58.22438 | 3312 ft | 222 kts | 302° |
| 2026-04-22 18:49 | -34.65699 | -58.23995 | 3182 ft | 223 kts | 301° |
| 2026-04-22 18:49 | -34.64836 | -58.25552 | 3081 ft | 220 kts | 301° |
| 2026-04-22 18:50 | -34.63994 | -58.27070 | 2874 ft | 216 kts | 301° |
| 2026-04-22 18:50 | -34.63150 | -58.28593 | 2553 ft | 218 kts | 302° |
| 2026-04-22 18:50 | -34.62298 | -58.30129 | 2238 ft | 220 kts | 302° |
| 2026-04-22 18:50 | -34.61452 | -58.31654 | 1919 ft | 215 kts | 301° |
| 2026-04-22 18:51 | -34.60630 | -58.33131 | 1623 ft | 209 kts | 302° |
| 2026-04-22 18:51 | -34.59799 | -58.34619 | 1317 ft | 200 kts | 303° |
| 2026-04-22 18:51 | -34.59034 | -58.35988 | 1041 ft | 196 kts | 303° |
| 2026-04-22 18:51 | -34.58281 | -58.37335 | 788 ft | 183 kts | 303° |
| 2026-04-22 18:52 | -34.57589 | -58.38574 | 548 ft | 170 kts | 302° |
| 2026-04-22 18:52 | -34.56966 | -58.39686 | 300 ft | 151 kts | 302° |
| 2026-04-22 18:52 | -34.56393 | -58.40709 | 61 ft | 142 kts | 300° |
| 2026-04-22 18:52 | -34.55930 | -58.41593 | 26 ft | 94 kts | 302° |
| 2026-04-22 18:53 | -34.55715 | -58.41964 | 26 ft | 31 kts | 308° |
| 2026-04-22 18:53 | -34.55583 | -58.42171 | 28 ft | 31 kts | 307° |
| 2026-04-22 18:53 | -34.55461 | -58.42383 | 28 ft | 31 kts | 301° |
| 2026-04-22 18:53 | -34.55382 | -58.42500 | 27 ft | 10 kts | 2° |
| 2026-04-22 18:54 | -34.55361 | -58.42434 | 26 ft | 9 kts | 96° |
| 2026-04-22 18:54 | -34.55366 | -58.42399 | 27 ft | 0 kts | 103° |
| 2026-04-22 18:54 | -34.55369 | -58.42387 | 27 ft | 2 kts | 104° |
| 2026-04-22 18:54 | -34.55377 | -58.42360 | 27 ft | 8 kts | 117° |
| 2026-04-22 18:55 | -34.55406 | -58.42310 | 27 ft | 6 kts | 125° |
| 2026-04-22 18:55 | -34.55429 | -58.42271 | 27 ft | 5 kts | 125° |
| 2026-04-22 18:55 | -34.55446 | -58.42242 | 27 ft | 4 kts | 125° |
| 2026-04-22 18:55 | -34.55467 | -58.42211 | 27 ft | 9 kts | 131° |
| 2026-04-22 18:56 | -34.55506 | -58.42156 | 27 ft | 8 kts | 129° |
| 2026-04-22 18:56 | -34.55536 | -58.42104 | 27 ft | 7 kts | 124° |
| 2026-04-22 18:56 | -34.55562 | -58.42059 | 27 ft | 6 kts | 124° |
| 2026-04-22 18:56 | -34.55583 | -58.42022 | 27 ft | 6 kts | 125° |
| 2026-04-22 18:57 | -34.55616 | -58.41966 | 27 ft | 8 kts | 126° |
| 2026-04-22 18:57 | -34.55647 | -58.41912 | 27 ft | 9 kts | 124° |
| 2026-04-22 18:57 | -34.55690 | -58.41835 | 29 ft | 11 kts | 124° |
| 2026-04-22 18:57 | -34.55729 | -58.41763 | 28 ft | 10 kts | 120° |
| 2026-04-22 18:58 | -34.55756 | -58.41697 | 26 ft | 8 kts | 115° |
| 2026-04-22 18:58 | -34.55778 | -58.41643 | 27 ft | 6 kts | 118° |
| 2026-04-22 18:58 | -34.55797 | -58.41599 | 27 ft | 5 kts | 118° |
| 2026-04-22 18:58 | -34.55814 | -58.41562 | 27 ft | 4 kts | 118° |
| 2026-04-22 18:59 | -34.55828 | -58.41529 | 26 ft | 6 kts | 118° |
| 2026-04-22 18:59 | -34.55865 | -58.41443 | 27 ft | 17 kts | 117° |
| 2026-04-22 18:59 | -34.55903 | -58.41315 | 27 ft | 15 kts | 76° |
| 2026-04-22 18:59 | -34.55844 | -58.41281 | 27 ft | 8 kts | 341° |
| 2026-04-22 19:00 | -34.55817 | -58.41310 | 27 ft | 0 kts | 336° |
| 2026-04-22 19:00 | -34.55816 | -58.41310 | 27 ft | 1 kts | 346° |
| 2026-04-22 19:00 | -34.55797 | -58.41296 | 27 ft | 4 kts | 39° |
| 2026-04-22 19:00 | -34.55779 | -58.41278 | 27 ft | 0 kts | 40° |
| 2026-04-22 19:01 | -34.55780 | -58.41279 | 27 ft | 0 kts | 40° |
| 2026-04-22 19:01 | -34.55782 | -58.41282 | 27 ft | 0 kts | 40° |